This is the latest recevied weather packets stored in our database for station/object DOUGLAS. If no packets are shown the sender has not sent any weather packets the latest 10 day(s).
| Time | Temp. | Humidity | Pressure | Rain* | Wind** | Luminosity | Snow |
|---|---|---|---|---|---|---|---|
| 1788142803 | 15.56° C | 84% | 0 hPa | - | - | - | - |
| 1788142203 | 15.56° C | 85% | 0 hPa | - | - | - | - |
| 1788141604 | 16.11° C | 83% | 0 hPa | - | - | - | - |
| 1788141003 | 16.67° C | 82% | 0 hPa | - | - | - | - |
| 1788140403 | 16.11° C | 83% | 0 hPa | - | - | - | - |
| 1788139803 | 16.67° C | 82% | 0 hPa | - | - | - | - |
| 1788139203 | 16.67° C | 82% | 0 hPa | - | - | - | - |
| 1788138610 | 16.67° C | 82% | 0 hPa | - | - | - | - |
| 1788138004 | 16.67° C | 82% | 0 hPa | - | - | - | - |
| 1788137402 | 17.22° C | 77% | 0 hPa | - | - | - | - |
| 1788136802 | 17.78° C | 72% | 0 hPa | - | - | - | - |
| 1788136203 | 17.78° C | 71% | 0 hPa | - | - | - | - |
| 1788135603 | 17.22° C | 76% | 0 hPa | - | - | - | - |
| 1788135005 | 18.33° C | 68% | 0 hPa | - | - | - | - |
| 1788134403 | 18.33° C | 68% | 0 hPa | - | - | - | - |
| 1788133803 | 18.33° C | 71% | 0 hPa | - | - | - | - |
| 1788133203 | 17.78° C | 73% | 0 hPa | - | - | - | - |
| 1788132604 | 18.33° C | 69% | 0 hPa | - | - | - | - |
| 1788132003 | 17.78° C | 73% | 0 hPa | - | - | - | - |
| 1788131403 | 18.33° C | 72% | 0 hPa | - | - | - | - |
| 1788130803 | 18.33° C | 71% | 0 hPa | - | - | - | - |
| 1788130203 | 17.78° C | 73% | 0 hPa | - | - | - | - |
| 1788129603 | 18.89° C | 67% | 0 hPa | - | - | - | - |
| 1788129015 | 18.33° C | 68% | 0 hPa | - | - | - | - |
| 1788128402 | 18.89° C | 63% | 0 hPa | - | - | - | - |
* Rain since midnight (hover to see other rain measurements)
** Current wind speed in m/s (hover to see current wind gust speed)